createdAt,value
2018-12-04T00:00:01.441Z,82.87
2018-12-04T00:02:30.962Z,81.40
2018-12-04T00:05:00.588Z,83.53
2018-12-04T00:07:30.145Z,79.70
2018-12-04T00:09:59.705Z,82.47
2018-12-04T00:12:29.265Z,81.80
2018-12-04T00:14:58.789Z,80.80
2018-12-04T00:17:28.278Z,81.57
2018-12-04T00:19:57.894Z,82.67
2018-12-04T00:22:27.465Z,78.30
2018-12-04T00:24:57.021Z,79.43
2018-12-04T00:27:26.546Z,82.10
2018-12-04T00:29:56.024Z,86.93
2018-12-04T00:32:25.554Z,98.20
2018-12-04T00:34:55.128Z,98.57
2018-12-04T00:37:24.701Z,87.47
2018-12-04T00:39:54.181Z,87.10
2018-12-04T00:42:23.668Z,87.07
2018-12-04T00:44:53.177Z,85.50
2018-12-04T00:47:22.737Z,82.97
2018-12-04T00:49:52.253Z,74.37
2018-12-04T00:52:21.793Z,73.47
2018-12-04T00:54:51.333Z,74.60
2018-12-04T00:57:20.830Z,79.20
2018-12-04T00:59:50.393Z,78.67
2018-12-04T01:02:20.007Z,78.43
2018-12-04T01:04:49.628Z,76.03
2018-12-04T01:07:19.210Z,73.57
2018-12-04T01:09:48.734Z,71.33
2018-12-04T01:12:18.332Z,69.97
2018-12-04T01:14:47.860Z,70.67
2018-12-04T01:17:17.373Z,71.27
2018-12-04T01:19:46.846Z,70.50
2018-12-04T01:22:16.368Z,70.20
2018-12-04T01:24:45.864Z,65.87
2018-12-04T01:27:15.408Z,65.47
2018-12-04T01:29:44.905Z,63.00
2018-12-04T01:32:14.421Z,67.27
2018-12-04T01:34:43.947Z,67.80
2018-12-04T01:37:13.453Z,64.30
2018-12-04T01:39:42.960Z,62.20
2018-12-04T01:42:13.386Z,65.20
2018-12-04T01:44:42.885Z,61.63
2018-12-04T01:47:12.481Z,63.67
2018-12-04T01:49:42.034Z,63.43
2018-12-04T01:52:11.505Z,64.90
2018-12-04T01:54:41.028Z,64.20
2018-12-04T01:57:10.532Z,66.33
2018-12-04T01:59:40.037Z,68.70
2018-12-04T02:02:09.548Z,69.83
2018-12-04T02:04:39.054Z,71.23
2018-12-04T02:07:08.560Z,68.83
2018-12-04T02:09:38.390Z,67.63
2018-12-04T02:12:07.921Z,67.07
2018-12-04T02:14:37.464Z,57.70
2018-12-04T02:17:06.937Z,60.53
2018-12-04T02:19:36.441Z,63.13
2018-12-04T02:22:05.970Z,62.27
2018-12-04T02:24:35.504Z,64.77
2018-12-04T02:27:05.035Z,61.43
2018-12-04T02:29:34.541Z,61.43
2018-12-04T02:32:04.024Z,62.57
2018-12-04T02:34:33.559Z,64.23
2018-12-04T02:37:03.046Z,65.47
2018-12-04T02:39:32.569Z,64.07
2018-12-04T02:42:02.053Z,62.37
2018-12-04T02:44:31.561Z,63.27
2018-12-04T02:47:01.093Z,63.47
2018-12-04T02:49:30.573Z,61.63
2018-12-04T02:52:00.109Z,61.87
2018-12-04T02:54:29.589Z,60.13
2018-12-04T02:56:59.093Z,63.33
2018-12-04T02:59:28.560Z,60.77
2018-12-04T03:01:58.062Z,56.80
2018-12-04T03:04:27.566Z,57.90
2018-12-04T03:06:57.117Z,59.87
2018-12-04T03:09:26.649Z,59.60
2018-12-04T03:11:56.116Z,62.17
2018-12-04T03:14:25.621Z,61.93
2018-12-04T03:16:55.136Z,63.97
2018-12-04T03:19:24.633Z,60.63
2018-12-04T03:21:54.137Z,63.07
2018-12-04T03:24:23.628Z,63.13
2018-12-04T03:26:53.365Z,64.37
2018-12-04T03:29:22.841Z,62.27
2018-12-04T03:31:52.369Z,61.50
2018-12-04T03:34:21.896Z,61.87
2018-12-04T03:36:51.432Z,64.40
2018-12-04T03:39:20.953Z,63.37
2018-12-04T03:41:50.527Z,60.77
2018-12-04T03:44:19.997Z,61.60
2018-12-04T03:46:49.531Z,63.37
2018-12-04T03:49:19.039Z,62.60
2018-12-04T03:51:48.576Z,64.00
2018-12-04T03:54:18.080Z,59.10
2018-12-04T03:56:47.649Z,63.33
2018-12-04T03:59:17.127Z,63.13
2018-12-04T04:01:46.665Z,62.07
2018-12-04T04:04:16.189Z,61.33
2018-12-04T04:06:45.739Z,63.50
2018-12-04T04:09:15.278Z,61.67
2018-12-04T04:11:44.805Z,63.60
2018-12-04T04:14:14.318Z,61.60
2018-12-04T04:16:43.821Z,63.60
2018-12-04T04:19:13.293Z,65.37
2018-12-04T04:21:42.800Z,62.33
2018-12-04T04:24:12.347Z,64.37
2018-12-04T04:26:41.857Z,63.13
2018-12-04T04:29:11.340Z,64.07
2018-12-04T04:31:40.841Z,62.93
2018-12-04T04:34:10.306Z,61.33
2018-12-04T04:36:39.851Z,64.20
2018-12-04T04:39:09.413Z,64.10
2018-12-04T04:41:39.025Z,60.90
2018-12-04T04:44:08.504Z,64.93
2018-12-04T04:46:38.029Z,69.63
2018-12-04T04:49:07.525Z,67.37
2018-12-04T04:51:37.053Z,71.40
2018-12-04T04:54:06.517Z,81.23
2018-12-04T04:56:36.014Z,87.20
2018-12-04T04:59:05.550Z,83.17
2018-12-04T05:01:35.057Z,71.77
2018-12-04T05:04:04.674Z,69.73
2018-12-04T05:06:34.197Z,74.20
2018-12-04T05:09:03.877Z,70.30
2018-12-04T05:11:33.501Z,74.40
2018-12-04T05:14:02.981Z,74.60
2018-12-04T05:16:32.506Z,79.83
2018-12-04T05:19:02.015Z,72.77
2018-12-04T05:21:31.530Z,78.53
2018-12-04T05:24:01.069Z,77.27
2018-12-04T05:26:30.553Z,76.37
2018-12-04T05:29:00.085Z,79.90
2018-12-04T05:31:29.666Z,76.87
2018-12-04T05:33:59.182Z,73.27
2018-12-04T05:36:28.708Z,76.23
2018-12-04T05:38:58.231Z,77.63
2018-12-04T05:41:27.704Z,69.07
2018-12-04T05:43:57.208Z,65.37
2018-12-04T05:46:26.734Z,53.13
2018-12-04T05:48:56.305Z,50.77
2018-12-04T05:51:25.829Z,50.47
2018-12-04T05:53:55.305Z,49.20
2018-12-04T05:56:24.913Z,47.37
2018-12-04T05:58:54.417Z,47.67
2018-12-04T06:01:23.985Z,49.53
2018-12-04T06:03:53.461Z,46.77
2018-12-04T06:06:23.049Z,52.37
2018-12-04T06:08:52.573Z,57.83
2018-12-04T06:11:22.060Z,68.67
2018-12-04T06:13:51.632Z,85.83
2018-12-04T06:16:21.116Z,117.03
2018-12-04T06:18:50.659Z,87.37
2018-12-04T06:21:20.204Z,84.33
2018-12-04T06:23:49.738Z,89.20
2018-12-04T06:26:19.235Z,86.23
2018-12-04T06:28:48.837Z,89.33
2018-12-04T06:31:18.336Z,82.13
2018-12-04T06:33:47.892Z,67.97
2018-12-04T06:36:17.790Z,66.83
2018-12-04T06:38:47.343Z,65.33
2018-12-04T06:41:16.823Z,65.93
2018-12-04T06:43:46.320Z,70.53
2018-12-04T06:46:16.889Z,68.77
2018-12-04T06:48:46.428Z,63.60
2018-12-04T06:51:15.941Z,61.97
2018-12-04T06:53:45.521Z,63.53
2018-12-04T06:56:15.143Z,66.07
2018-12-04T06:58:44.622Z,74.30
2018-12-04T07:01:45.036Z,91.33
2018-12-04T07:04:14.553Z,78.03
2018-12-04T07:06:44.061Z,109.50
2018-12-04T07:09:13.582Z,107.57
2018-12-04T07:11:43.102Z,81.10
2018-12-04T07:14:12.589Z,71.97
2018-12-04T07:16:42.209Z,72.70
2018-12-04T07:19:11.743Z,74.00
2018-12-04T07:21:41.620Z,74.33
2018-12-04T07:24:11.165Z,74.37
2018-12-04T07:26:40.656Z,82.77
2018-12-04T07:29:10.168Z,76.90
2018-12-04T07:31:39.709Z,78.30
2018-12-04T07:34:09.238Z,74.53
2018-12-04T07:36:38.849Z,76.40
2018-12-04T07:39:08.952Z,74.70
2018-12-04T07:41:38.710Z,74.33
2018-12-04T07:44:08.236Z,74.53
2018-12-04T07:46:37.797Z,73.90
2018-12-04T07:49:07.367Z,71.40
2018-12-04T07:51:36.943Z,73.83
2018-12-04T07:54:06.422Z,69.57
2018-12-04T07:56:35.989Z,66.80
2018-12-04T07:59:05.513Z,65.87
2018-12-04T08:01:35.025Z,65.40
2018-12-04T08:04:04.617Z,63.80
2018-12-04T08:06:34.143Z,64.27
2018-12-04T08:09:05.753Z,64.17
2018-12-04T08:11:35.300Z,65.40
2018-12-04T08:14:05.009Z,66.07
2018-12-04T08:16:34.724Z,65.40
2018-12-04T08:19:04.804Z,67.33
2018-12-04T08:21:35.044Z,63.87
2018-12-04T08:24:04.697Z,63.73
2018-12-04T08:26:35.161Z,63.47
2018-12-04T08:29:04.683Z,65.90
2018-12-04T08:31:34.166Z,64.93
2018-12-04T08:34:03.711Z,62.30
2018-12-04T08:36:33.270Z,63.93
2018-12-04T08:39:02.748Z,59.67
2018-12-04T08:41:32.272Z,57.57
2018-12-04T08:44:01.776Z,61.07
2018-12-04T08:46:31.277Z,62.53
2018-12-04T08:49:00.741Z,65.57
2018-12-04T08:51:30.337Z,64.20
2018-12-04T08:53:59.885Z,67.37
2018-12-04T08:56:29.518Z,66.13
2018-12-04T08:58:59.009Z,67.00
2018-12-04T09:01:28.482Z,65.57
2018-12-04T09:03:59.317Z,65.77
2018-12-04T09:06:33.048Z,67.77
2018-12-04T09:09:02.709Z,68.63
2018-12-04T09:11:32.185Z,66.10
2018-12-04T09:14:01.716Z,66.40
2018-12-04T09:16:31.265Z,69.13
2018-12-04T09:19:00.764Z,68.27
2018-12-04T09:21:30.281Z,89.80
2018-12-04T09:23:59.861Z,91.30
2018-12-04T09:26:29.557Z,82.70
2018-12-04T09:28:59.243Z,70.80
2018-12-04T09:31:28.857Z,66.13
2018-12-04T09:33:58.401Z,66.93
2018-12-04T09:36:27.973Z,72.40
2018-12-04T09:38:57.440Z,80.27
2018-12-04T09:41:26.976Z,83.10
2018-12-04T09:43:56.445Z,78.53
2018-12-04T09:46:26.096Z,75.90
2018-12-04T09:48:55.601Z,79.60
2018-12-04T09:51:25.187Z,76.87
2018-12-04T09:53:54.764Z,75.43
2018-12-04T09:56:24.232Z,73.43
2018-12-04T09:58:53.733Z,71.73
2018-12-04T10:01:23.206Z,74.03
2018-12-04T10:03:52.716Z,76.00
2018-12-04T10:06:22.189Z,75.47
2018-12-04T10:08:51.715Z,75.23
2018-12-04T10:11:21.254Z,73.20
2018-12-04T10:13:50.758Z,71.27
2018-12-04T10:16:20.269Z,74.30
2018-12-04T10:18:49.722Z,73.23
2018-12-04T10:21:19.188Z,72.47
2018-12-04T10:23:48.725Z,65.83
2018-12-04T10:26:18.229Z,68.40
2018-12-04T10:28:47.712Z,65.83
2018-12-04T10:31:17.240Z,68.33
2018-12-04T10:33:46.749Z,62.23
2018-12-04T10:36:16.295Z,60.97
2018-12-04T10:38:45.761Z,58.03
2018-12-04T10:41:15.297Z,55.07
2018-12-04T10:43:44.842Z,51.33
2018-12-04T10:46:14.988Z,52.43
2018-12-04T10:48:44.470Z,49.93
2018-12-04T10:51:13.938Z,48.00
2018-12-04T10:53:43.546Z,49.70
2018-12-04T10:56:13.009Z,50.20
2018-12-04T10:58:42.508Z,50.30
2018-12-04T11:01:17.149Z,48.93
2018-12-04T11:03:46.699Z,47.50
2018-12-04T11:06:16.255Z,46.77
2018-12-04T11:08:45.819Z,47.47
2018-12-04T11:11:15.357Z,47.73
2018-12-04T11:13:44.818Z,45.83
2018-12-04T11:16:14.337Z,46.93
2018-12-04T11:18:43.849Z,43.67
2018-12-04T11:21:13.301Z,44.23
2018-12-04T11:23:42.830Z,42.73
2018-12-04T11:26:12.437Z,43.00
2018-12-04T11:28:41.954Z,47.03
2018-12-04T11:31:11.405Z,50.08
2018-12-04T11:33:40.910Z,42.17
2018-12-04T11:36:10.496Z,40.23
2018-12-04T11:38:39.950Z,33.80
2018-12-04T11:41:09.506Z,37.57
2018-12-04T11:43:38.953Z,43.80
2018-12-04T11:46:08.482Z,40.97
2018-12-04T11:48:38.398Z,39.10
2018-12-04T11:51:07.910Z,42.83
2018-12-04T11:56:16.229Z,39.50
2018-12-04T11:58:46.225Z,39.13
2018-12-04T12:01:19.813Z,38.10
2018-12-04T12:03:49.408Z,37.77
2018-12-04T12:06:18.909Z,39.15
2018-12-04T12:08:48.385Z,41.28
2018-12-04T12:11:17.914Z,34.00
2018-12-04T12:13:47.578Z,39.42
2018-12-04T12:16:17.179Z,35.07
2018-12-04T12:18:46.648Z,35.13
2018-12-04T12:21:16.203Z,33.87
2018-12-04T12:23:45.693Z,35.90
2018-12-04T12:26:15.192Z,39.88
2018-12-04T12:28:44.722Z,45.10
2018-12-04T12:31:14.329Z,49.03
2018-12-04T12:33:43.800Z,49.33
2018-12-04T12:36:13.309Z,48.00
2018-12-04T12:38:42.875Z,47.70
2018-12-04T12:41:12.501Z,54.40
2018-12-04T12:43:41.961Z,46.50
2018-12-04T12:46:11.629Z,45.33
2018-12-04T12:48:41.244Z,42.40
2018-12-04T12:51:10.777Z,44.27
2018-12-04T12:53:40.277Z,42.03
2018-12-04T12:56:09.777Z,40.23
2018-12-04T12:58:39.260Z,41.27
2018-12-04T13:01:08.782Z,41.63
2018-12-04T13:03:38.271Z,38.37
2018-12-04T13:06:07.765Z,43.90
2018-12-04T13:08:37.216Z,43.83
2018-12-04T13:11:06.732Z,42.93
2018-12-04T13:13:36.964Z,42.30
2018-12-04T13:16:06.687Z,41.43
2018-12-04T13:18:36.177Z,39.90
2018-12-04T13:21:05.645Z,39.17
2018-12-04T13:23:35.152Z,36.90
2018-12-04T13:26:04.641Z,38.93
2018-12-04T13:28:34.094Z,40.70
2018-12-04T13:31:03.585Z,41.27
2018-12-04T13:33:33.058Z,43.10
2018-12-04T13:36:02.680Z,43.97
2018-12-04T13:38:32.157Z,39.90
2018-12-04T13:41:01.697Z,38.27
2018-12-04T13:43:31.187Z,42.17
2018-12-04T13:46:00.721Z,43.50
2018-12-04T13:48:30.316Z,46.10
2018-12-04T13:50:59.808Z,47.70
2018-12-04T13:53:29.298Z,45.40
2018-12-04T13:55:58.749Z,42.83
2018-12-04T13:58:28.326Z,44.20
2018-12-04T14:00:57.824Z,41.60
2018-12-04T14:03:27.333Z,42.97
2018-12-04T14:05:56.862Z,44.00
2018-12-04T14:08:26.378Z,43.30
2018-12-04T14:10:55.897Z,44.00
2018-12-04T14:13:25.391Z,45.00
2018-12-04T14:15:56.883Z,44.77
2018-12-04T14:18:26.467Z,44.13
2018-12-04T14:20:55.962Z,51.88
2018-12-04T14:23:27.856Z,53.08
2018-12-04T14:25:57.384Z,47.40
2018-12-04T14:28:27.072Z,53.13
2018-12-04T14:30:56.711Z,46.73
2018-12-04T14:33:26.243Z,47.43
2018-12-04T14:35:55.874Z,45.23
2018-12-04T14:38:25.388Z,45.77
2018-12-04T14:40:54.875Z,44.83
2018-12-04T14:43:24.370Z,44.00
2018-12-04T14:45:53.962Z,47.70
2018-12-04T14:48:23.524Z,56.83
2018-12-04T14:50:53.086Z,45.33
2018-12-04T14:53:22.576Z,46.77
2018-12-04T14:55:52.130Z,45.83
2018-12-04T14:58:21.597Z,47.67
2018-12-04T15:00:51.208Z,47.60
2018-12-04T15:03:20.749Z,46.97
2018-12-04T15:05:50.386Z,46.83
2018-12-04T15:08:19.977Z,46.27
2018-12-04T15:10:49.592Z,47.50
2018-12-04T15:13:19.306Z,48.80
2018-12-04T15:15:48.840Z,48.33
2018-12-04T15:18:18.304Z,47.30
2018-12-04T15:20:47.918Z,48.67
2018-12-04T15:23:17.584Z,48.87
2018-12-04T15:25:47.251Z,49.87
2018-12-04T15:28:17.072Z,48.90
2018-12-04T15:30:46.735Z,49.93
2018-12-04T15:33:16.270Z,47.53
2018-12-04T15:35:45.880Z,48.00
2018-12-04T15:38:15.537Z,49.10
2018-12-04T15:40:45.154Z,59.20
2018-12-04T15:43:14.761Z,53.93
2018-12-04T15:45:44.371Z,49.63
2018-12-04T15:48:13.907Z,50.10
2018-12-04T15:50:43.529Z,49.70
2018-12-04T15:53:13.082Z,49.10
2018-12-04T15:55:42.687Z,50.73
2018-12-04T15:58:12.208Z,49.57
2018-12-04T16:00:41.768Z,49.50
2018-12-04T16:03:11.398Z,51.03
2018-12-04T16:05:40.918Z,50.47
2018-12-04T16:08:10.410Z,49.97
2018-12-04T16:10:39.917Z,65.83
2018-12-04T16:13:09.541Z,55.93
2018-12-04T16:15:39.094Z,57.63
2018-12-04T16:18:08.726Z,53.87
2018-12-04T16:20:38.217Z,54.23
2018-12-04T16:23:07.782Z,48.03
2018-12-04T16:25:37.272Z,48.87
2018-12-04T16:28:06.729Z,49.90
2018-12-04T16:30:36.306Z,49.97
2018-12-04T16:33:05.806Z,51.03
2018-12-04T16:35:35.298Z,56.50
2018-12-04T16:38:04.766Z,55.77
2018-12-04T16:40:34.264Z,48.67
2018-12-04T16:43:03.737Z,47.43
2018-12-04T16:45:33.285Z,47.73
2018-12-04T16:48:02.724Z,47.07
2018-12-04T16:50:32.220Z,47.00
2018-12-04T16:53:01.682Z,49.33
2018-12-04T16:55:31.219Z,48.97
2018-12-04T16:58:00.718Z,48.00
2018-12-04T17:00:30.252Z,52.33
2018-12-04T17:02:59.929Z,47.77
2018-12-04T17:05:29.398Z,50.20
2018-12-04T17:07:58.892Z,51.53
2018-12-04T17:10:28.418Z,52.03
2018-12-04T17:12:57.916Z,54.03
2018-12-04T17:15:27.423Z,56.53
2018-12-04T17:17:57.283Z,54.33
2018-12-04T17:20:26.781Z,51.97
2018-12-04T17:22:56.264Z,51.63
2018-12-04T17:25:25.734Z,49.70
2018-12-04T17:27:55.244Z,53.00
2018-12-04T17:30:24.744Z,50.30
2018-12-04T17:32:54.497Z,53.27
2018-12-04T17:35:24.009Z,52.00
2018-12-04T17:37:53.505Z,51.87
2018-12-04T17:40:22.986Z,52.37
2018-12-04T17:42:52.556Z,52.30
2018-12-04T17:45:22.002Z,56.87
2018-12-04T17:47:51.515Z,53.23
2018-12-04T17:50:21.013Z,54.57
2018-12-04T17:52:50.541Z,55.03
2018-12-04T17:55:20.075Z,55.10
2018-12-04T17:57:49.574Z,52.70
2018-12-04T18:00:19.099Z,53.70
2018-12-04T18:02:48.569Z,52.67
2018-12-04T18:05:18.141Z,52.37
2018-12-04T18:07:47.668Z,53.00
2018-12-04T18:10:17.152Z,54.33
2018-12-04T18:12:46.641Z,52.00
2018-12-04T18:15:16.080Z,51.60
2018-12-04T18:17:45.557Z,52.10
2018-12-04T18:20:15.012Z,52.23
2018-12-04T18:22:44.492Z,52.60
2018-12-04T18:25:13.949Z,56.17
2018-12-04T18:27:43.440Z,52.70
2018-12-04T18:30:12.986Z,50.67
2018-12-04T18:32:42.496Z,49.30
2018-12-04T18:35:11.983Z,52.60
2018-12-04T18:37:41.483Z,62.43
2018-12-04T18:40:10.974Z,52.23
2018-12-04T18:42:40.497Z,54.83
2018-12-04T18:45:09.996Z,56.97
2018-12-04T18:47:39.514Z,58.17
2018-12-04T18:50:10.596Z,70.57
2018-12-04T18:52:41.021Z,65.20
2018-12-04T18:55:12.805Z,60.43
2018-12-04T18:57:42.288Z,64.07
2018-12-04T19:00:12.305Z,74.13
2018-12-04T19:02:41.946Z,72.43
2018-12-04T19:05:11.485Z,78.63
2018-12-04T19:07:41.033Z,69.17
2018-12-04T19:10:10.662Z,72.37
2018-12-04T19:12:40.229Z,70.90
2018-12-04T19:15:09.945Z,81.07
2018-12-04T19:17:39.389Z,72.77
2018-12-04T19:20:09.492Z,85.80
2018-12-04T19:22:39.330Z,82.17
2018-12-04T19:25:09.018Z,83.73
2018-12-04T19:27:38.481Z,85.77
2018-12-04T19:30:11.829Z,130.77
2018-12-04T19:32:41.350Z,102.77
2018-12-04T19:35:12.696Z,82.93
2018-12-04T19:37:42.334Z,77.30
2018-12-04T19:40:12.517Z,146.07
2018-12-04T19:42:44.845Z,110.10
2018-12-04T19:45:14.709Z,116.93
2018-12-04T19:47:44.239Z,93.07
2018-12-04T19:50:13.744Z,95.70
2018-12-04T19:52:43.232Z,98.53
2018-12-04T19:55:12.727Z,97.53
2018-12-04T19:57:42.322Z,90.83
2018-12-04T20:00:12.197Z,92.97
2018-12-04T20:02:41.805Z,88.67
2018-12-04T20:05:11.297Z,86.93
2018-12-04T20:07:40.837Z,93.37
2018-12-04T20:10:10.312Z,87.57
2018-12-04T20:12:39.801Z,88.30
2018-12-04T20:15:09.673Z,85.27
2018-12-04T20:17:39.200Z,82.80
2018-12-04T20:20:08.708Z,87.20
2018-12-04T20:22:38.342Z,86.53
2018-12-04T20:25:08.697Z,87.37
2018-12-04T20:27:38.207Z,82.23
2018-12-04T20:30:08.478Z,80.33
2018-12-04T20:32:38.017Z,83.00
2018-12-04T20:35:07.729Z,83.97
2018-12-04T20:37:37.189Z,84.63
2018-12-04T20:40:07.043Z,87.70
2018-12-04T20:42:36.529Z,88.47
2018-12-04T20:45:06.645Z,90.37
2018-12-04T20:47:36.135Z,92.90
2018-12-04T20:50:06.601Z,89.50
2018-12-04T20:52:36.120Z,86.07
2018-12-04T20:55:08.867Z,93.03
2018-12-04T20:57:37.379Z,102.10
2018-12-04T21:00:08.977Z,96.57
2018-12-04T21:02:38.635Z,100.37
2018-12-04T21:05:08.300Z,99.03
2018-12-04T21:07:37.761Z,100.10
2018-12-04T21:10:07.552Z,99.70
2018-12-04T21:12:37.005Z,101.00
2018-12-04T21:15:07.261Z,100.73
2018-12-04T21:17:36.827Z,103.07
2018-12-04T21:20:06.360Z,102.03
2018-12-04T21:22:35.863Z,102.87
2018-12-04T21:25:05.934Z,104.07
2018-12-04T21:27:40.442Z,106.57
2018-12-04T21:30:15.706Z,106.67
2018-12-04T21:32:50.460Z,105.23
2018-12-04T21:35:25.129Z,104.97
2018-12-04T21:40:05.730Z,107.70
2018-12-04T21:44:44.380Z,112.60
2018-12-04T21:47:19.053Z,110.87
2018-12-04T21:49:48.558Z,110.90
2018-12-04T21:52:18.009Z,109.40
2018-12-04T21:54:47.506Z,113.27
2018-12-04T21:57:16.961Z,113.20
2018-12-04T21:59:46.601Z,112.13
2018-12-04T22:02:16.081Z,110.47
2018-12-04T22:04:45.574Z,110.73
2018-12-04T22:07:15.814Z,114.00
2018-12-04T22:09:45.336Z,107.03
2018-12-04T22:12:14.826Z,106.57
2018-12-04T22:14:44.338Z,100.37
2018-12-04T22:17:13.797Z,100.70
2018-12-04T22:19:43.290Z,100.63
2018-12-04T22:22:12.776Z,102.37
2018-12-04T22:24:42.353Z,98.80
2018-12-04T22:27:11.811Z,97.03
2018-12-04T22:29:41.348Z,97.00
2018-12-04T22:32:10.813Z,99.43
2018-12-04T22:34:40.305Z,99.90
2018-12-04T22:37:09.761Z,101.63
2018-12-04T22:39:39.244Z,99.93
2018-12-04T22:42:08.743Z,97.70
2018-12-04T22:44:38.242Z,96.17
2018-12-04T22:47:07.836Z,94.20
2018-12-04T22:49:37.337Z,85.87
2018-12-04T22:52:06.820Z,85.40
2018-12-04T22:54:36.326Z,84.00
2018-12-04T22:57:05.841Z,78.70
2018-12-04T22:59:35.361Z,78.50
2018-12-04T23:02:05.125Z,86.00
2018-12-04T23:04:34.633Z,86.13
2018-12-04T23:07:04.130Z,87.57
2018-12-04T23:09:33.629Z,82.47
2018-12-04T23:12:03.176Z,72.87
2018-12-04T23:14:33.185Z,70.33
2018-12-04T23:17:02.877Z,74.47
2018-12-04T23:19:32.340Z,75.50
2018-12-04T23:22:01.842Z,82.10
2018-12-04T23:24:31.393Z,82.30
2018-12-04T23:27:00.845Z,83.80
2018-12-04T23:29:30.365Z,81.93
2018-12-04T23:31:59.834Z,84.50
2018-12-04T23:34:29.349Z,81.73
2018-12-04T23:36:58.829Z,81.73
2018-12-04T23:39:28.334Z,82.80
2018-12-04T23:41:57.806Z,81.87
2018-12-04T23:44:27.304Z,80.63
2018-12-04T23:46:56.805Z,82.63
2018-12-04T23:49:26.310Z,83.97
2018-12-04T23:51:55.804Z,86.03
2018-12-04T23:54:25.300Z,80.47
2018-12-04T23:56:54.813Z,80.13
2018-12-04T23:59:24.287Z,79.30
